Time;durP1;ratioP1;P1;durP2;ratioP2;P2;SDS_P1;SDS_P2;PMS_P1;PMS_P2;Temp;Humidity;BMP_temperature;BMP_pressure;BME280_temperature;BME280_humidity;BME280_pressure;Samples;Min_cycle;Max_cycle;Signal;HPM_P1;HPM_P2
2021/09/04 00:00:58;;;;;;;8.23;4.40;;;;;;;18.93;55.65;100069.31;5131337;27;20027;-68
2021/09/04 00:03:24;;;;;;;9.63;4.40;;;;;;;18.80;56.25;100067.47;5129737;27;20035;-69
2021/09/04 00:05:49;;;;;;;6.78;4.90;;;;;;;18.83;56.12;100067.06;5114630;27;20037;-69
2021/09/04 00:08:15;;;;;;;8.90;4.18;;;;;;;18.68;56.48;100069.09;5128941;27;20065;-69
2021/09/04 00:10:40;;;;;;;7.90;4.28;;;;;;;18.55;57.14;100075.25;5134247;27;20335;-68
2021/09/04 00:13:06;;;;;;;10.48;4.30;;;;;;;18.48;57.37;100085.16;5135149;27;20036;-69
2021/09/04 00:15:31;;;;;;;8.38;4.45;;;;;;;18.43;57.81;100077.72;5130844;27;20035;-69
2021/09/04 00:17:57;;;;;;;6.57;4.13;;;;;;;18.46;57.21;100071.94;5127911;27;20251;-68
2021/09/04 00:23:50;;;;;;;6.63;4.25;;;;;;;18.41;57.42;100071.75;5130165;27;20043;-69
2021/09/04 00:26:16;;;;;;;9.45;3.92;;;;;;;18.45;56.75;100058.75;5133086;27;20035;-69
2021/09/04 00:28:42;;;;;;;8.85;4.32;;;;;;;18.40;57.24;100070.09;5110975;27;20027;-69
2021/09/04 00:31:08;;;;;;;6.35;4.07;;;;;;;18.46;57.11;100080.00;5129955;27;20194;-69
2021/09/04 00:33:33;;;;;;;8.32;4.20;;;;;;;18.45;57.65;100074.84;5128432;27;20100;-74
2021/09/04 00:35:59;;;;;;;11.23;4.43;;;;;;;18.61;57.11;100085.19;5132456;27;20198;-69
2021/09/04 00:38:24;;;;;;;8.98;4.53;;;;;;;18.48;57.42;100082.47;5129739;27;20279;-69
2021/09/04 00:40:50;;;;;;;9.35;4.13;;;;;;;18.42;57.38;100075.25;5134017;27;20050;-69
2021/09/04 00:43:15;;;;;;;8.75;4.38;;;;;;;18.48;56.98;100079.78;5129088;27;20031;-69
2021/09/04 00:49:02;;;;;;;5.03;3.92;;;;;;;18.35;57.02;100080.59;5129596;27;20077;-69
2021/09/04 00:51:28;;;;;;;6.10;3.33;;;;;;;18.34;57.44;100078.94;5132265;27;20047;-69
2021/09/04 00:53:53;;;;;;;5.90;4.10;;;;;;;18.36;58.43;100076.88;5130625;27;20105;-69
2021/09/04 00:56:18;;;;;;;10.93;4.72;;;;;;;18.37;58.10;100078.53;5132855;27;20038;-74
2021/09/04 00:58:44;;;;;;;7.32;4.05;;;;;;;18.32;58.61;100074.81;5132524;27;20050;-74
2021/09/04 01:01:09;;;;;;;7.75;4.13;;;;;;;18.33;58.62;100079.16;5132672;27;20080;-73
2021/09/04 01:03:35;;;;;;;5.63;3.83;;;;;;;18.31;58.90;100086.56;5127872;27;20032;-74
2021/09/04 01:06:01;;;;;;;6.07;4.10;;;;;;;18.42;58.03;100072.56;5110539;28;20172;-74
2021/09/04 01:08:26;;;;;;;5.32;4.20;;;;;;;18.42;57.16;100075.25;5131781;27;20129;-74
2021/09/04 01:10:53;;;;;;;7.50;3.95;;;;;;;18.33;57.29;100076.47;5127573;27;20035;-69
2021/09/04 01:13:19;;;;;;;9.77;3.78;;;;;;;18.36;57.81;100070.69;5127820;27;20038;-74
2021/09/04 01:15:46;;;;;;;8.75;4.22;;;;;;;18.32;58.75;100074.81;5129701;27;20042;-73
2021/09/04 01:18:11;;;;;;;6.72;4.00;;;;;;;18.21;60.02;100084.28;5128966;27;20035;-74
2021/09/04 01:20:37;;;;;;;8.60;3.78;;;;;;;18.10;60.22;100082.19;5127496;27;20024;-74
2021/09/04 01:23:03;;;;;;;7.43;4.25;;;;;;;18.11;60.16;100084.69;5129594;27;20050;-74
2021/09/04 01:25:31;;;;;;;7.93;4.20;;;;;;;18.10;59.43;100083.03;5126531;27;20716;-74
2021/09/04 01:27:59;;;;;;;7.03;4.32;;;;;;;17.78;60.49;100071.19;5109453;27;20321;-74
2021/09/04 01:30:25;;;;;;;12.70;4.68;;;;;;;17.98;59.47;100070.41;5128223;27;20094;-74
2021/09/04 01:32:50;;;;;;;8.02;5.00;;;;;;;17.66;60.65;100075.44;5127910;27;20309;-69
2021/09/04 01:35:21;;;;;;;6.45;4.38;;;;;;;17.43;61.32;100073.03;5106974;27;20023;-69
2021/09/04 01:37:46;;;;;;;8.35;4.78;;;;;;;17.54;61.31;100071.66;5126709;27;20020;-69
2021/09/04 01:40:12;;;;;;;7.43;4.35;;;;;;;17.62;61.18;100070.66;5125255;27;20250;-74
2021/09/04 01:42:39;;;;;;;6.45;4.30;;;;;;;17.83;60.96;100075.94;5127431;27;20345;-74
2021/09/04 01:45:05;;;;;;;6.80;4.60;;;;;;;17.80;60.89;100071.00;5123891;27;20023;-68
2021/09/04 01:47:31;;;;;;;11.88;4.90;;;;;;;17.78;60.80;100073.88;5128840;27;20023;-69
2021/09/04 01:49:56;;;;;;;8.35;4.40;;;;;;;17.79;60.61;100072.84;5123465;27;20088;-68
2021/09/04 01:52:22;;;;;;;12.10;4.82;;;;;;;17.81;60.70;100072.63;5128971;27;20023;-74
2021/09/04 01:54:49;;;;;;;5.22;4.25;;;;;;;17.58;61.46;100069.41;5126471;27;20039;-74
2021/09/04 01:57:15;;;;;;;11.57;5.10;;;;;;;17.54;61.46;100058.25;5130057;27;20272;-69
2021/09/04 01:59:40;;;;;;;7.50;4.47;;;;;;;17.65;61.43;100071.06;5128199;27;20035;-69
2021/09/04 02:02:07;;;;;;;10.80;4.97;;;;;;;17.60;61.19;100065.50;5127804;27;20051;-74
2021/09/04 02:04:32;;;;;;;12.27;5.00;;;;;;;17.68;61.44;100062.69;5125320;27;20027;-74
2021/09/04 02:06:58;;;;;;;6.38;4.50;;;;;;;17.69;61.04;100060.84;5127751;27;20339;-69
2021/09/04 02:09:23;;;;;;;8.38;5.30;;;;;;;17.18;61.82;100032.56;5123661;27;20043;-69
2021/09/04 02:11:49;;;;;;;9.57;5.57;;;;;;;17.23;62.21;100053.38;5128367;27;20071;-68
2021/09/04 02:14:14;;;;;;;10.73;5.90;;;;;;;17.08;63.08;100058.03;5126227;27;20035;-74
2021/09/04 02:16:41;;;;;;;23.50;5.57;;;;;;;17.14;62.84;100046.53;5125906;27;20023;-74
2021/09/04 02:19:06;;;;;;;12.43;5.20;;;;;;;17.00;63.50;100050.97;5126426;27;20232;-69
2021/09/04 02:21:32;;;;;;;9.27;5.15;;;;;;;16.82;63.75;100050.66;5111325;28;20020;-69
2021/09/04 02:23:57;;;;;;;13.85;5.70;;;;;;;17.10;63.13;100051.44;5127270;27;20050;-69
2021/09/04 02:26:23;;;;;;;11.45;5.32;;;;;;;17.01;63.20;100057.97;5123626;27;20027;-69
2021/09/04 02:28:48;;;;;;;12.48;5.07;;;;;;;17.13;62.60;100048.38;5127697;27;20023;-74
2021/09/04 02:31:15;;;;;;;8.63;5.07;;;;;;;17.24;62.27;100047.00;5123758;27;20051;-74
2021/09/04 02:33:41;;;;;;;11.52;5.10;;;;;;;17.21;61.88;100042.88;5129980;27;20049;-68
2021/09/04 02:36:06;;;;;;;12.60;5.30;;;;;;;17.13;62.24;100042.19;5123878;27;20063;-69
2021/09/04 02:38:32;;;;;;;9.27;5.25;;;;;;;16.96;62.87;100040.88;5129866;27;20038;-69
2021/09/04 02:40:57;;;;;;;14.23;5.43;;;;;;;16.94;62.51;100056.28;5123881;27;20326;-73
2021/09/04 02:43:22;;;;;;;9.95;5.45;;;;;;;16.99;62.39;100052.00;5116264;27;20030;-74
2021/09/04 02:45:48;;;;;;;9.98;5.05;;;;;;;17.10;61.83;100051.44;5128994;27;20040;-74
2021/09/04 02:48:13;;;;;;;7.45;4.85;;;;;;;17.24;61.89;100050.50;5126297;27;20037;-69
2021/09/04 02:50:39;;;;;;;14.02;5.45;;;;;;;17.17;61.95;100052.31;5126135;27;20027;-69
2021/09/04 02:53:06;;;;;;;9.80;4.82;;;;;;;17.34;61.39;100047.47;5127022;27;20035;-69
2021/09/04 02:55:33;;;;;;;9.27;4.90;;;;;;;17.16;62.14;100055.19;5125647;27;20036;-74
2021/09/04 02:57:58;;;;;;;6.32;4.57;;;;;;;17.17;61.63;100046.97;5126830;27;20046;-70
2021/09/04 03:00:24;;;;;;;11.48;4.90;;;;;;;17.26;61.76;100058.34;5127837;27;20027;-74
2021/09/04 03:02:50;;;;;;;9.52;4.88;;;;;;;17.24;61.58;100057.69;5125514;27;20035;-69
2021/09/04 03:05:15;;;;;;;18.25;5.18;;;;;;;17.26;61.73;100049.47;5125606;27;20034;-74
2021/09/04 03:07:41;;;;;;;14.02;5.22;;;;;;;17.16;61.67;100039.97;5107262;27;20040;-74
2021/09/04 03:10:07;;;;;;;8.45;5.03;;;;;;;17.10;62.89;100050.63;5106753;28;20217;-69
2021/09/04 03:12:32;;;;;;;8.15;5.30;;;;;;;16.91;63.10;100049.47;5120151;27;20027;-69
2021/09/04 03:14:58;;;;;;;10.27;5.00;;;;;;;17.01;63.45;100047.28;5124458;27;20054;-69
2021/09/04 03:17:23;;;;;;;13.00;5.00;;;;;;;16.90;63.56;100048.66;5125163;27;20133;-74
2021/09/04 03:19:48;;;;;;;10.70;5.53;;;;;;;17.18;62.58;100037.91;5127739;27;20106;-69
2021/09/04 03:22:14;;;;;;;10.35;5.22;;;;;;;17.11;62.65;100033.53;5123698;27;20137;-68
2021/09/04 03:24:40;;;;;;;10.82;5.47;;;;;;;16.99;63.19;100037.78;5129535;27;20040;-69
2021/09/04 03:27:06;;;;;;;13.38;5.50;;;;;;;17.04;63.11;100048.72;5124074;27;20090;-74
2021/09/04 03:29:32;;;;;;;15.30;5.47;;;;;;;16.88;62.94;100049.88;5126441;27;20034;-74
2021/09/04 03:31:57;;;;;;;16.20;5.40;;;;;;;16.84;63.25;100051.28;5122978;27;20024;-69
2021/09/04 03:34:23;;;;;;;12.23;6.25;;;;;;;16.54;64.32;100046.06;5110136;27;20107;-74
2021/09/04 03:36:48;;;;;;;11.30;6.13;;;;;;;16.82;63.46;100053.31;5123829;27;20041;-69
2021/09/04 03:39:14;;;;;;;9.20;5.75;;;;;;;16.39;64.71;100057.84;5126179;27;20035;-69
2021/09/04 03:41:39;;;;;;;18.15;6.22;;;;;;;16.42;64.44;100063.63;5103565;27;20091;-69
2021/09/04 03:44:04;;;;;;;13.88;5.70;;;;;;;16.52;64.33;100063.31;5127252;27;20034;-68
2021/09/04 03:46:30;;;;;;;11.40;6.03;;;;;;;16.68;63.42;100055.06;5106137;28;20022;-68
2021/09/04 03:48:59;;;;;;;9.43;5.70;;;;;;;16.67;63.49;100061.44;5126438;27;20035;-69
2021/09/04 03:51:26;;;;;;;8.63;5.60;;;;;;;16.77;63.49;100056.59;5121850;27;20019;-68
2021/09/04 03:53:51;;;;;;;13.45;6.05;;;;;;;16.77;63.52;100064.59;5129641;28;20023;-69
2021/09/04 03:56:17;;;;;;;8.93;5.28;;;;;;;16.87;63.15;100059.75;5126359;27;20339;-69
2021/09/04 03:58:42;;;;;;;11.05;6.13;;;;;;;16.96;62.85;100051.56;5122106;28;20091;-68
2021/09/04 04:01:07;;;;;;;9.25;5.40;;;;;;;16.91;62.39;100049.47;5125517;28;20027;-68
2021/09/04 04:03:33;;;;;;;10.20;5.70;;;;;;;16.83;62.40;100047.78;5125343;27;20046;-68
2021/09/04 04:05:58;;;;;;;6.65;5.15;;;;;;;16.65;63.07;100054.59;5124844;28;20366;-69
2021/09/04 04:08:24;;;;;;;12.13;5.82;;;;;;;16.69;62.66;100056.72;5122925;28;20333;-69
2021/09/04 04:10:49;;;;;;;13.75;6.20;;;;;;;16.54;63.51;100059.44;5127538;28;20118;-69
2021/09/04 04:13:14;;;;;;;10.65;5.80;;;;;;;16.67;63.48;100066.78;5124518;28;20032;-69
2021/09/04 04:15:40;;;;;;;20.67;6.43;;;;;;;16.90;62.83;100074.56;5123198;28;20023;-69
2021/09/04 04:18:05;;;;;;;15.65;6.35;;;;;;;16.92;62.33;100077.88;5131569;28;20052;-68
2021/09/04 04:20:31;;;;;;;25.90;11.27;;;;;;;16.99;62.15;100080.59;5123057;28;20019;-68
2021/09/04 04:22:56;;;;;;;24.48;13.88;;;;;;;17.22;61.50;100073.97;5124094;28;20049;-69
2021/09/04 04:25:22;;;;;;;19.40;12.18;;;;;;;17.34;61.11;100084.09;5123699;28;20031;-69
2021/09/04 04:27:47;;;;;;;14.13;7.18;;;;;;;17.03;61.38;100087.22;5125233;28;20340;-74
2021/09/04 04:30:13;;;;;;;13.23;6.30;;;;;;;17.26;61.05;100087.78;5126575;28;20266;-74
2021/09/04 04:32:38;;;;;;;12.65;6.60;;;;;;;17.38;60.99;100090.72;5122806;28;20048;-74
2021/09/04 04:35:04;;;;;;;13.43;6.90;;;;;;;17.21;61.58;100093.72;5124660;28;20079;-74
2021/09/04 04:37:30;;;;;;;20.67;6.70;;;;;;;17.16;62.29;100089.97;5122169;27;20035;-68
2021/09/04 04:39:55;;;;;;;17.75;7.00;;;;;;;17.35;61.55;100091.94;5124164;28;20053;-68
2021/09/04 04:42:20;;;;;;;24.75;6.70;;;;;;;17.30;62.56;100088.19;5123598;28;20024;-69
2021/09/04 04:44:46;;;;;;;17.67;7.22;;;;;;;17.27;62.25;100091.28;5127110;28;20023;-68
2021/09/04 04:47:11;;;;;;;17.25;6.63;;;;;;;17.18;62.88;100099.47;5120552;28;20030;-68
2021/09/04 04:49:37;;;;;;;24.08;7.72;;;;;;;17.42;62.21;100090.13;5127443;27;20063;-69
2021/09/04 04:52:02;;;;;;;18.90;7.22;;;;;;;17.49;61.96;100082.94;5126798;27;20027;-74
2021/09/04 04:54:28;;;;;;;23.50;7.20;;;;;;;17.37;62.65;100105.94;5115416;28;20031;-74
2021/09/04 04:56:53;;;;;;;18.25;7.15;;;;;;;17.60;62.32;100102.97;5123726;27;20031;-74
2021/09/04 04:59:19;;;;;;;15.75;7.10;;;;;;;17.90;61.01;100105.44;5129264;27;20027;-74
2021/09/04 05:01:44;;;;;;;15.25;8.25;;;;;;;17.55;61.91;100092.03;5130610;27;20408;-74
2021/09/04 05:04:10;;;;;;;9.18;6.65;;;;;;;17.77;61.30;100092.81;5126737;27;20107;-74
2021/09/04 05:06:35;;;;;;;19.35;10.07;;;;;;;17.86;60.65;100096.97;5129923;27;20028;-70
2021/09/04 05:09:00;;;;;;;17.40;9.55;;;;;;;17.87;60.56;100095.94;5127594;27;20047;-69
2021/09/04 05:11:26;;;;;;;19.67;8.95;;;;;;;17.89;61.10;100088.53;5128132;27;20328;-69
2021/09/04 05:13:51;;;;;;;16.58;9.70;;;;;;;17.81;61.16;100086.03;5127930;27;20039;-69
2021/09/04 05:16:17;;;;;;;16.40;9.27;;;;;;;17.93;61.31;100072.88;5124892;27;20031;-74
2021/09/04 05:18:42;;;;;;;14.93;9.77;;;;;;;18.48;59.55;100071.75;5128315;27;20411;-74
2021/09/04 05:21:08;;;;;;;20.02;9.80;;;;;;;18.76;58.34;100075.09;5128522;27;20039;-74
2021/09/04 05:23:34;;;;;;;16.08;9.63;;;;;;;18.98;57.50;100070.34;5127173;27;20024;-69
2021/09/04 05:25:59;;;;;;;24.90;16.42;;;;;;;19.17;57.23;100062.47;5128134;27;20051;-74
2021/09/04 05:28:25;;;;;;;16.52;9.65;;;;;;;19.29;56.83;100066.97;5107743;27;20229;-74
2021/09/04 05:30:50;;;;;;;11.10;8.18;;;;;;;19.41;56.69;100059.09;5127407;27;20214;-69
2021/09/04 05:33:15;;;;;;;17.42;8.90;;;;;;;19.71;55.65;100072.84;5124485;27;20039;-74
2021/09/04 05:35:42;;;;;;;11.13;8.10;;;;;;;19.85;55.54;100071.78;5126336;27;20030;-74
2021/09/04 05:38:08;;;;;;;14.32;8.38;;;;;;;20.02;55.21;100085.53;5125795;27;20038;-74
2021/09/04 05:40:33;;;;;;;16.27;9.57;;;;;;;19.84;56.02;100090.81;5112267;27;20019;-74
2021/09/04 05:42:59;;;;;;;23.00;9.13;;;;;;;20.30;55.41;100093.22;5132850;27;20045;-74
2021/09/04 05:45:24;;;;;;;21.40;13.05;;;;;;;20.76;53.40;100090.22;5132233;27;20041;-74
2021/09/04 05:47:49;;;;;;;18.70;10.38;;;;;;;20.62;53.95;100077.94;5140695;27;20032;-74
2021/09/04 05:50:15;;;;;;;14.20;7.93;;;;;;;21.15;52.32;100080.16;5144071;27;20035;-74
2021/09/04 05:52:40;;;;;;;24.85;16.05;;;;;;;21.62;51.37;100073.25;5137269;27;20032;-74
2021/09/04 05:55:06;;;;;;;15.65;8.00;;;;;;;22.06;48.68;100076.66;5144711;27;20035;-75
2021/09/04 05:57:31;;;;;;;19.20;12.05;;;;;;;22.55;48.09;100072.81;5144874;27;20042;-69
2021/09/04 05:59:57;;;;;;;24.25;15.07;;;;;;;22.92;46.87;100076.19;5144702;27;20190;-69
2021/09/04 06:02:23;;;;;;;19.55;7.78;;;;;;;22.95;46.48;100078.44;5139685;27;20050;-69
2021/09/04 06:04:48;;;;;;;14.65;7.97;;;;;;;22.84;45.90;100085.44;5144788;27;20039;-74
2021/09/04 06:07:14;;;;;;;18.33;7.72;;;;;;;22.74;46.48;100087.03;5144467;27;20031;-74
2021/09/04 06:09:39;;;;;;;15.02;10.02;;;;;;;22.95;46.40;100074.91;5144893;27;20183;-75
2021/09/04 06:12:05;;;;;;;12.80;7.60;;;;;;;22.56;46.82;100085.25;5144834;27;20041;-75
2021/09/04 06:14:30;;;;;;;17.55;9.18;;;;;;;22.71;46.79;100079.41;5144550;27;20108;-74
2021/09/04 06:16:56;;;;;;;14.85;7.38;;;;;;;23.01;46.46;100082.06;5144591;27;20023;-69
2021/09/04 06:19:22;;;;;;;16.00;8.68;;;;;;;23.43;45.53;100078.16;5144610;27;20068;-69
2021/09/04 06:21:47;;;;;;;14.90;7.75;;;;;;;23.54;45.17;100088.13;5144822;27;20019;-74
2021/09/04 06:24:13;;;;;;;17.20;7.35;;;;;;;23.39;44.46;100081.56;5144181;27;20115;-74
2021/09/04 06:26:38;;;;;;;12.25;7.55;;;;;;;23.56;44.67;100086.03;5144535;27;20030;-75
2021/09/04 06:29:03;;;;;;;12.27;8.35;;;;;;;23.56;44.08;100075.22;5143950;27;20041;-75
2021/09/04 06:31:29;;;;;;;18.15;7.57;;;;;;;23.88;43.11;100088.28;5144273;27;20023;-69
2021/09/04 06:33:54;;;;;;;13.65;6.43;;;;;;;24.35;41.13;100085.41;5127117;27;20043;-69
2021/09/04 06:36:20;;;;;;;15.07;7.18;;;;;;;24.56;41.23;100081.16;5125564;27;20031;-75
2021/09/04 06:38:45;;;;;;;15.35;7.88;;;;;;;24.85;39.98;100074.59;5124746;27;20771;-75
2021/09/04 06:41:11;;;;;;;17.13;7.10;;;;;;;25.12;39.20;100075.59;5107534;27;20225;-75
2021/09/04 06:43:37;;;;;;;14.35;7.78;;;;;;;25.43;38.70;100076.03;5126318;27;20046;-69
2021/09/04 06:46:03;;;;;;;12.27;7.00;;;;;;;24.84;39.83;100078.38;5123885;27;20033;-69
2021/09/04 06:48:28;;;;;;;19.23;7.75;;;;;;;25.01;39.74;100079.25;5126830;27;20019;-74
2021/09/04 06:50:54;;;;;;;12.65;7.15;;;;;;;24.83;39.93;100076.75;5126789;27;20093;-69
2021/09/04 06:53:19;;;;;;;12.20;7.18;;;;;;;25.03;39.30;100084.41;5126669;27;20032;-69
2021/09/04 06:55:45;;;;;;;11.75;6.72;;;;;;;25.27;38.50;100083.13;5124929;27;20076;-73
2021/09/04 06:58:10;;;;;;;9.80;6.82;;;;;;;25.11;39.31;100092.13;5128559;27;20035;-74
2021/09/04 07:00:36;;;;;;;13.13;7.20;;;;;;;25.36;38.72;100084.34;5121963;27;20337;-69
2021/09/04 07:03:01;;;;;;;11.35;6.43;;;;;;;25.33;39.18;100079.41;5132915;27;20255;-69
2021/09/04 07:05:26;;;;;;;17.67;7.03;;;;;;;25.49;39.01;100074.19;5134114;27;20317;-70
2021/09/04 07:07:52;;;;;;;10.90;6.88;;;;;;;25.58;38.29;100059.13;5141249;27;20055;-70
2021/09/04 07:10:17;;;;;;;12.15;6.78;;;;;;;26.08;37.34;100053.50;5141615;27;20023;-69
2021/09/04 07:12:43;;;;;;;13.80;6.40;;;;;;;26.21;36.32;100044.94;5142890;27;20042;-73
2021/09/04 07:15:09;;;;;;;10.52;6.45;;;;;;;26.03;36.66;100067.03;5141735;27;20062;-70
2021/09/04 07:17:34;;;;;;;11.40;6.82;;;;;;;25.67;37.24;100079.34;5142625;27;20198;-72
2021/09/04 07:20:00;;;;;;;16.30;6.90;;;;;;;25.99;37.22;100082.97;5142376;27;20038;-70
2021/09/04 07:22:25;;;;;;;12.27;7.20;;;;;;;26.21;36.85;100082.94;5142320;27;20038;-70
2021/09/04 07:24:51;;;;;;;17.15;7.15;;;;;;;26.54;35.79;100079.22;5142335;27;20045;-70
2021/09/04 07:27:16;;;;;;;12.68;6.97;;;;;;;26.29;35.26;100077.06;5142880;27;20031;-69
2021/09/04 07:29:41;;;;;;;10.00;5.57;;;;;;;26.36;34.97;100074.16;5142279;27;20045;-70
2021/09/04 07:32:07;;;;;;;8.77;4.82;;;;;;;26.51;34.82;100068.03;5142698;27;20039;-73
2021/09/04 07:34:32;;;;;;;8.90;4.28;;;;;;;26.32;35.16;100063.00;5141363;27;20031;-70
2021/09/04 07:36:58;;;;;;;8.85;4.45;;;;;;;26.52;35.66;100054.22;5142156;27;20031;-74
2021/09/04 07:39:23;;;;;;;7.05;4.35;;;;;;;26.47;35.74;100050.63;5142374;27;20035;-69
2021/09/04 07:41:48;;;;;;;6.07;4.00;;;;;;;26.85;35.20;100053.09;5123931;27;20038;-70
2021/09/04 07:44:14;;;;;;;10.43;4.50;;;;;;;26.96;34.33;100053.97;5142376;27;20212;-70
2021/09/04 07:46:39;;;;;;;10.15;4.15;;;;;;;26.96;34.27;100049.34;5141954;27;20027;-70
2021/09/04 07:49:05;;;;;;;11.35;4.80;;;;;;;27.30;33.86;100047.16;5141867;27;20030;-70
2021/09/04 07:51:30;;;;;;;7.32;3.97;;;;;;;27.58;34.10;100040.47;5142396;27;20027;-67
2021/09/04 07:53:56;;;;;;;8.95;5.03;;;;;;;27.57;33.78;100043.47;5141873;27;20042;-71
2021/09/04 07:56:22;;;;;;;9.60;4.75;;;;;;;27.64;33.72;100046.78;5142265;27;20068;-71
2021/09/04 07:58:47;;;;;;;9.30;4.47;;;;;;;27.58;33.83;100036.94;5123882;27;20019;-71
2021/09/04 08:01:13;;;;;;;11.50;4.60;;;;;;;27.43;34.09;100036.88;5141627;27;20023;-67
2021/09/04 08:03:38;;;;;;;8.43;4.57;;;;;;;26.54;36.25;100022.19;5142136;27;20041;-70
2021/09/04 08:06:05;;;;;;;5.18;3.90;;;;;;;25.35;38.06;100030.38;5123382;27;20026;-69
2021/09/04 08:08:30;;;;;;;9.48;3.92;;;;;;;25.00;38.14;100036.16;5140205;27;20031;-73
2021/09/04 08:10:56;;;;;;;7.75;4.07;;;;;;;25.11;38.34;100027.91;5142221;27;20068;-69
2021/09/04 08:13:21;;;;;;;13.27;4.95;;;;;;;24.58;40.18;100039.25;5141982;27;20045;-73
2021/09/04 08:15:48;;;;;;;12.20;4.35;;;;;;;25.18;38.96;100041.28;5141340;27;20034;-74
2021/09/04 08:18:14;;;;;;;8.25;4.22;;;;;;;25.08;38.40;100041.97;5141606;27;20035;-73
2021/09/04 08:20:40;;;;;;;6.50;4.63;;;;;;;25.50;37.73;100046.00;5141796;27;20260;-73
2021/09/04 08:23:07;;;;;;;9.18;4.20;;;;;;;25.83;37.23;100032.31;5144163;27;20355;-73
2021/09/04 08:25:34;;;;;;;8.38;4.30;;;;;;;26.22;35.97;100037.63;5143925;27;20391;-70
2021/09/04 08:28:00;;;;;;;5.60;3.92;;;;;;;26.53;35.45;100027.88;5145104;27;20052;-70
2021/09/04 08:30:25;;;;;;;9.00;4.55;;;;;;;26.76;35.04;100024.78;5145555;27;20027;-69
2021/09/04 08:32:50;;;;;;;8.90;4.30;;;;;;;26.75;35.54;100022.31;5145885;27;20035;-74
2021/09/04 08:35:16;;;;;;;6.47;3.85;;;;;;;26.83;35.39;100024.53;5142972;27;20055;-70
2021/09/04 08:37:42;;;;;;;9.15;3.72;;;;;;;26.94;34.53;100020.81;5145727;27;20480;-73
2021/09/04 08:40:10;;;;;;;7.10;3.95;;;;;;;27.25;34.00;100013.69;5144045;27;20124;-73
2021/09/04 08:42:35;;;;;;;7.22;4.05;;;;;;;27.18;34.94;100016.66;5145606;27;20031;-70
2021/09/04 08:45:00;;;;;;;8.95;3.65;;;;;;;27.00;34.06;100014.34;5145171;27;20034;-67
2021/09/04 08:47:29;;;;;;;6.38;3.33;;;;;;;27.14;34.31;100018.25;5145643;27;20038;-67
2021/09/04 08:49:54;;;;;;;9.75;4.05;;;;;;;27.78;34.08;100019.88;5143406;27;20038;-67
2021/09/04 08:52:20;;;;;;;7.28;3.83;;;;;;;28.09;32.93;100018.03;5145789;27;20217;-72
2021/09/04 08:54:47;;;;;;;8.68;3.70;;;;;;;28.22;32.69;100017.53;5127061;27;20038;-68
2021/09/04 08:57:13;;;;;;;9.73;4.10;;;;;;;28.27;32.59;100020.28;5143311;27;20062;-72
2021/09/04 08:59:38;;;;;;;9.20;3.80;;;;;;;28.38;32.58;100021.09;5144699;27;20057;-68
2021/09/04 09:02:11;;;;;;;5.30;3.80;;;;;;;28.45;32.39;100014.28;5145372;27;20023;-71
2021/09/04 09:04:36;;;;;;;8.68;4.18;;;;;;;28.37;32.09;100008.59;5144760;27;20043;-68
2021/09/04 09:07:02;;;;;;;8.32;3.97;;;;;;;27.81;33.20;100014.72;5145238;27;20042;-71
2021/09/04 09:09:27;;;;;;;7.43;3.80;;;;;;;27.59;33.88;100017.63;5143138;27;20102;-73
2021/09/04 09:11:55;;;;;;;9.65;4.75;;;;;;;27.16;35.15;100010.66;5145545;27;20023;-67
2021/09/04 09:14:22;;;;;;;6.85;3.83;;;;;;;26.76;35.13;100010.38;5145077;27;20037;-68
2021/09/04 09:16:55;;;;;;;5.63;3.65;;;;;;;26.66;35.81;100011.94;5144974;27;20352;-71
2021/09/04 09:19:29;;;;;;;9.30;3.80;;;;;;;26.61;36.02;100005.66;5145278;27;20144;-68
2021/09/04 09:21:58;;;;;;;7.32;3.95;;;;;;;26.36;36.86;100017.16;5144831;27;20090;-71
2021/09/04 09:24:26;;;;;;;9.80;4.15;;;;;;;26.63;35.53;100019.78;5145085;27;20038;-68
2021/09/04 09:27:02;;;;;;;7.78;4.07;;;;;;;26.93;36.16;100013.75;5144848;27;20031;-68
2021/09/04 09:29:33;;;;;;;6.70;4.13;;;;;;;27.09;34.16;100010.09;5144713;27;20047;-72
2021/09/04 09:31:59;;;;;;;9.07;4.00;;;;;;;27.18;34.16;100011.22;5143506;27;20035;-71
2021/09/04 09:34:25;;;;;;;6.30;3.85;;;;;;;27.24;33.29;100001.19;5144069;27;20095;-72
2021/09/04 09:36:54;;;;;;;7.88;4.43;;;;;;;26.94;33.89;99999.06;5144380;27;20081;-71
2021/09/04 09:39:25;;;;;;;9.50;3.92;;;;;;;26.71;35.31;99995.69;5144633;27;20034;-67
2021/09/04 09:41:52;;;;;;;7.70;4.53;;;;;;;26.84;35.69;99982.72;5143016;27;20371;-68
2021/09/04 09:44:23;;;;;;;7.25;3.80;;;;;;;27.01;35.28;99967.06;5144312;27;20198;-69
2021/09/04 09:46:51;;;;;;;13.13;4.32;;;;;;;27.06;35.02;99967.13;5119772;27;20031;-68
2021/09/04 09:49:16;;;;;;;5.78;3.88;;;;;;;27.23;34.95;99970.47;5133847;27;20046;-72
2021/09/04 09:51:43;;;;;;;6.75;4.18;;;;;;;27.45;34.39;99955.84;5134285;27;20094;-72
2021/09/04 09:54:11;;;;;;;7.25;4.28;;;;;;;27.10;34.33;99956.53;5135512;27;20084;-72
2021/09/04 09:56:38;;;;;;;7.97;3.90;;;;;;;26.91;34.53;99942.53;5116830;27;20020;-68
2021/09/04 09:59:05;;;;;;;10.68;4.40;;;;;;;26.28;36.84;99952.44;5133330;27;20388;-72
2021/09/04 10:01:30;;;;;;;9.60;4.22;;;;;;;25.81;37.64;99950.38;5131868;27;20030;-68
2021/09/04 10:03:58;;;;;;;7.68;3.45;;;;;;;25.31;37.94;99942.50;5136528;27;20309;-68
2021/09/04 10:06:24;;;;;;;6.40;3.80;;;;;;;25.51;40.03;99948.16;5132241;27;20263;-68
2021/09/04 10:08:51;;;;;;;9.43;4.07;;;;;;;25.45;37.11;99949.19;5132089;27;20058;-72
2021/09/04 10:11:17;;;;;;;8.75;4.00;;;;;;;25.51;37.80;99936.50;5136572;27;20035;-72
2021/09/04 10:13:43;;;;;;;11.88;4.03;;;;;;;25.54;37.45;99936.81;5131861;27;20256;-72
2021/09/04 10:16:09;;;;;;;5.57;3.80;;;;;;;25.73;38.44;99929.16;5134183;27;20032;-68
2021/09/04 10:18:38;;;;;;;6.80;4.00;;;;;;;25.79;38.29;99936.25;5130720;27;20035;-68
2021/09/04 10:21:07;;;;;;;7.95;3.53;;;;;;;25.58;37.55;99929.78;5134180;27;20034;-67
2021/09/04 10:23:32;;;;;;;7.53;3.13;;;;;;;25.22;38.04;99920.47;5133705;27;20055;-74
2021/09/04 10:26:28;;;;;;;6.55;3.30;;;;;;;25.54;37.34;99917.81;5130863;27;20031;-68
2021/09/04 10:29:14;;;;;;;4.95;3.38;;;;;;;25.68;36.06;99904.69;5109377;27;20043;-69
2021/09/04 10:32:00;;;;;;;7.30;3.80;;;;;;;25.35;36.69;99903.81;5137110;27;20278;-74
2021/09/04 10:34:27;;;;;;;4.82;3.47;;;;;;;25.34;36.35;99901.34;5133771;27;20039;-68
2021/09/04 10:36:56;;;;;;;7.90;3.53;;;;;;;25.46;35.22;99904.72;5130179;27;20259;-71
2021/09/04 10:39:23;;;;;;;6.50;3.60;;;;;;;25.48;34.65;99905.28;5132854;27;20031;-71
2021/09/04 10:41:49;;;;;;;6.65;3.30;;;;;;;25.50;35.88;99888.78;5135711;27;20049;-71
2021/09/04 10:44:15;;;;;;;10.23;3.65;;;;;;;25.65;34.57;99891.63;5131139;27;20031;-72
2021/09/04 10:46:42;;;;;;;3.97;3.08;;;;;;;25.92;34.65;99876.16;5133229;27;20038;-68
2021/09/04 10:49:07;;;;;;;6.90;3.60;;;;;;;25.99;35.14;99879.47;5128986;27;20039;-68
2021/09/04 10:51:51;;;;;;;5.05;3.25;;;;;;;25.95;34.72;99872.91;5131891;27;20381;-71
2021/09/04 10:54:54;;;;;;;8.65;3.20;;;;;;;25.67;34.66;99873.22;5128326;27;20054;-67
2021/09/04 10:57:20;;;;;;;7.50;3.58;;;;;;;25.50;34.69;99876.03;5121057;27;20097;-71
2021/09/04 11:00:27;;;;;;;6.25;3.45;;;;;;;25.64;35.71;99869.09;5132219;27;20420;-72
2021/09/04 11:02:58;;;;;;;5.78;3.63;;;;;;;25.87;33.22;99870.69;5136629;27;20039;-72
2021/09/04 11:05:24;;;;;;;7.68;4.03;;;;;;;25.71;35.95;99882.50;5133818;27;20027;-72
2021/09/04 11:08:18;;;;;;;7.30;3.55;;;;;;;25.67;36.18;99879.47;5131629;27;20055;-71
2021/09/04 11:10:44;;;;;;;;;;;;;;;25.72;34.74;99876.00;5112029;27;20036;-71
2021/09/04 11:13:12;;;;;;;7.40;3.90;;;;;;;25.83;35.96;99863.31;5123647;27;19981;-72
2021/09/04 11:15:42;;;;;;;5.80;3.50;;;;;;;25.91;33.93;99860.97;5126806;27;20027;-71
2021/09/04 11:18:08;;;;;;;10.13;3.70;;;;;;;25.77;34.48;99857.88;5126453;27;20035;-71
2021/09/04 11:20:49;;;;;;;6.72;3.38;;;;;;;25.86;34.06;99852.78;5121895;27;20279;-71
2021/09/04 11:23:25;;;;;;;6.65;3.83;;;;;;;25.74;34.06;99854.84;5126622;27;20027;-72
2021/09/04 11:25:52;;;;;;;6.80;3.75;;;;;;;25.85;35.24;99850.31;5121866;27;20113;-71